Arctic Taglu — CY8968 — position and weather

sailwx.info

Track history (hours):
 
Tides and Currents Weather Stations Pressure Air Temp Water Temp Dewpoint Dewpoint Depression Visibility Wind Speed Wind Dir Waves Ship Positions

Arctic Taglu

Last reported at 2016-Feb-08 20:33 UTC. Time now 2016-Feb-08 21:19 UTC.
Position N 49°09' W 123°02'.

Length 33 m; draft 6 m.

Type: Tug. MMSI: 316003483.

Date/timePositionNaut miles runAvg speedWind from/ knotsBaromVisibWave heightAir tempDewpointWater temp
2016-Feb-08 20:33N 49°09' W 123°02'0 0.0
2016-Feb-08 19:33N 49°09' W 123°02'0 0.0
2016-Feb-08 18:33N 49°09' W 123°02'0 0.0
2016-Feb-08 17:33N 49°09' W 123°02'0 0.0
2016-Feb-08 16:33N 49°09' W 123°02'0 0.0
2016-Feb-08 15:33N 49°09' W 123°02'0 0.0
2016-Feb-08 14:33N 49°09' W 123°02'0 0.0
2016-Feb-08 13:33N 49°09' W 123°02'0 0.0
2016-Feb-08 12:33N 49°09' W 123°02'0 0.0
2016-Feb-08 11:33N 49°09' W 123°02'0 0.0
2016-Feb-08 10:33N 49°09' W 123°02'0 0.0
2016-Feb-08 09:33N 49°09' W 123°02'0 0.0
2016-Feb-08 08:33N 49°09' W 123°02'0 0.0
2016-Feb-08 07:33N 49°09' W 123°02'0 0.0
2016-Feb-08 06:33N 49°09' W 123°02'0 0.0
2016-Feb-08 05:33N 49°09' W 123°02'0 0.0
2016-Feb-08 04:33N 49°09' W 123°02'0 0.0
2016-Feb-08 03:33N 49°09' W 123°02'0 0.0
2016-Feb-08 02:33N 49°09' W 123°02'0 0.0
2016-Feb-08 01:33N 49°09' W 123°02'0 0.0
2016-Feb-08 00:33N 49°09' W 123°02'0 0.0
2016-Feb-07 23:33N 49°09' W 123°02'0 0.0
2016-Feb-07 22:33N 49°09' W 123°02'0 0.0
2016-Feb-07 21:33N 49°09' W 123°02'0 0.0
2016-Feb-07 20:33N 49°09' W 123°02'0 0.0
2016-Feb-07 19:33N 49°09' W 123°02'0 0.0
2016-Feb-07 18:33N 49°09' W 123°02'0 0.0
2016-Feb-07 17:33N 49°09' W 123°02'0 0.0
2016-Feb-07 16:33N 49°09' W 123°02'0 0.0
2016-Feb-07 15:33N 49°09' W 123°02'0 0.0
2016-Feb-07 14:33N 49°09' W 123°02'0 0.0
2016-Feb-07 13:33N 49°09' W 123°02'0 0.0
2016-Feb-07 12:33N 49°09' W 123°02'0 0.0
2016-Feb-07 11:33N 49°09' W 123°02'0 0.0
2016-Feb-07 10:33N 49°09' W 123°02'0 0.0
2016-Feb-07 09:33N 49°09' W 123°02'0 0.0
2016-Feb-07 08:33N 49°09' W 123°02'0 0.0
2016-Feb-07 07:33N 49°09' W 123°02'0 0.0
2016-Feb-07 06:33N 49°09' W 123°02'0 0.0
2016-Feb-07 05:33N 49°09' W 123°02'0 0.0
2016-Feb-07 04:33N 49°09' W 123°02'0 0.0
2016-Feb-07 03:33N 49°09' W 123°02'0 0.0
2016-Feb-07 02:33N 49°09' W 123°02'0 0.0
2016-Feb-07 01:33N 49°09' W 123°02'0 0.0
2016-Feb-07 00:33N 49°09' W 123°02'0 0.0
2016-Feb-06 23:33N 49°09' W 123°02'0 0.0
2016-Feb-06 22:33N 49°09' W 123°02'0 0.0
2016-Feb-06 21:33N 49°09' W 123°02'0 0.0
2016-Feb-06 20:33N 49°09' W 123°02'0 0.0
2016-Feb-06 19:33N 49°09' W 123°02'0 0.0
2016-Feb-06 18:33N 49°09' W 123°02'0 0.0
2016-Feb-06 17:33N 49°09' W 123°02'6 5.6
2016-Feb-06 16:33N 49°07' W 123°10'7 7.2
2016-Feb-06 15:33N 49°03' W 123°19'1010.2
2016-Feb-06 14:33N 48°53' W 123°18'7 7.3
2016-Feb-06 13:33N 48°46' W 123°22'5 4.8
2016-Feb-06 12:33N 48°41' W 123°24'0 0.0
2016-Feb-06 11:33N 48°41' W 123°24'6 5.7
2016-Feb-06 10:33N 48°46' W 123°21'7 6.9
2016-Feb-06 09:33N 48°53' W 123°18'10 9.6
2016-Feb-06 08:33N 49°03' W 123°20'8 7.6
2016-Feb-06 07:33N 49°07' W 123°10'6 5.6
2016-Feb-06 06:33N 49°09' W 123°02'0 0.0
2016-Feb-06 05:33N 49°09' W 123°02'0 0.0
2016-Feb-06 04:33N 49°09' W 123°02'0 0.0
2016-Feb-06 03:33N 49°09' W 123°02'0 0.0
2016-Feb-06 02:33N 49°09' W 123°02'0 0.0
2016-Feb-06 01:33N 49°09' W 123°02'0 0.0
2016-Feb-06 00:33N 49°09' W 123°02'0 0.0
2016-Feb-05 23:33N 49°09' W 123°02'0 0.0
2016-Feb-05 22:33N 49°09' W 123°02'0 0.0
2016-Feb-05 21:33N 49°09' W 123°02'0 0.0
2016-Feb-05 20:33N 49°09' W 123°02'0 0.0
2016-Feb-05 19:33N 49°09' W 123°02'0 0.0
2016-Feb-05 18:33N 49°09' W 123°02'0 0.0
2016-Feb-05 17:33N 49°09' W 123°02'7 6.5
2016-Feb-05 16:33N 49°07' W 123°12'8 7.6
2016-Feb-05 15:33N 49°01' W 123°19'9 9.4
2016-Feb-05 14:33N 48°52' W 123°18'7 7.2
2016-Feb-05 13:33N 48°45' W 123°22'4 4.3
2016-Feb-05 12:33N 48°41' W 123°24'0 0.0
2016-Feb-05 11:33N 48°41' W 123°24'7 6.7
2016-Feb-05 10:33N 48°48' W 123°21'7 7.3
2016-Feb-05 09:33N 48°55' W 123°18'9 8.8
2016-Feb-05 08:33N 49°03' W 123°20'8 7.7
2016-Feb-05 07:33N 49°07' W 123°09'5 5.3
2016-Feb-05 06:33N 49°09' W 123°02'2 2.4
2016-Feb-05 05:33N 49°07' W 123°05'6 6.4
2016-Feb-05 04:33N 49°08' W 123°15'7 6.7
2016-Feb-05 03:33N 49°02' W 123°19'9 9.2
2016-Feb-05 02:33N 48°52' W 123°18'5 5.3
2016-Feb-05 01:33N 48°47' W 123°20'7 6.5
2016-Feb-05 00:33N 48°41' W 123°24'0 0.1
2016-Feb-04 23:32N 48°41' W 123°24'9 8.8
2016-Feb-04 22:33N 48°50' W 123°21'8 8.0
2016-Feb-04 21:33N 48°58' W 123°19'9 8.9
2016-Feb-04 20:33N 49°07' W 123°17'10 9.5
2016-Feb-04 19:33N 49°08' W 123°03'1 0.6
2016-Feb-04 18:33N 49°09' W 123°02'2 2.1
2016-Feb-04 17:33N 49°07' W 123°05'8 7.8
2016-Feb-04 16:33N 49°07' W 123°17'9 8.7
2016-Feb-04 15:33N 48°58' W 123°18'7 7.1
2016-Feb-04 14:33N 48°51' W 123°21'9 9.0
2016-Feb-04 13:33N 48°43' W 123°26'2 2.1
2016-Feb-04 12:33N 48°41' W 123°24'1 1.4
2016-Feb-04 11:33N 48°42' W 123°22'9 9.4
2016-Feb-04 10:33N 48°51' W 123°21'7 7.2
2016-Feb-04 09:33N 48°58' W 123°21'7 7.2
2016-Feb-04 08:33N 49°05' W 123°20'9 8.8
2016-Feb-04 07:33N 49°07' W 123°07'4 3.8
2016-Feb-04 06:33N 49°09' W 123°02'0 0.0
2016-Feb-04 05:33N 49°09' W 123°02'0 0.0
2016-Feb-04 04:33N 49°09' W 123°02'0 0.0
2016-Feb-04 03:33N 49°09' W 123°02'0 0.0
2016-Feb-04 02:33N 49°09' W 123°02'0 0.0
2016-Feb-04 01:33N 49°09' W 123°02'0 0.0
2016-Feb-04 00:33N 49°09' W 123°02'0 0.0
2016-Feb-03 23:33N 49°09' W 123°02'0 0.0
2016-Feb-03 22:33N 49°09' W 123°02'0 0.0
2016-Feb-03 21:33N 49°09' W 123°02'0 0.0
2016-Feb-03 20:33N 49°09' W 123°02'0 0.0
2016-Feb-03 19:33N 49°09' W 123°02'0 0.0
2016-Feb-03 18:33N 49°09' W 123°02'2 1.9
2016-Feb-03 17:33N 49°07' W 123°04'8 7.7
2016-Feb-03 16:33N 49°07' W 123°16'7 7.0
2016-Feb-03 15:33N 49°00' W 123°15'9 8.8
2016-Feb-03 14:33N 48°52' W 123°19'8 7.9
2016-Feb-03 13:33N 48°44' W 123°23'3 3.1
2016-Feb-03 12:33N 48°41' W 123°24'0 0.0
2016-Feb-03 11:33N 48°41' W 123°24'8 8.0
2016-Feb-03 10:33N 48°49' W 123°21'8 7.6
2016-Feb-03 09:33N 48°56' W 123°19'9 8.8
2016-Feb-03 08:33N 49°05' W 123°21'9 9.3
2016-Feb-03 07:33N 49°07' W 123°07'4 3.9
2016-Feb-03 06:33N 49°09' W 123°02'0 0.0
2016-Feb-03 05:33N 49°09' W 123°02'0 0.0
2016-Feb-03 04:33N 49°09' W 123°02'0 0.0
2016-Feb-03 03:33N 49°09' W 123°02'0 0.0
2016-Feb-03 02:33N 49°09' W 123°02'0 0.0
2016-Feb-03 01:33N 49°09' W 123°02'0 0.0
2016-Feb-03 00:33N 49°09' W 123°02'0 0.0
2016-Feb-02 23:33N 49°09' W 123°02'0 0.0
2016-Feb-02 22:33N 49°09' W 123°02'0 0.0
2016-Feb-02 21:33N 49°09' W 123°02'0 0.0
2016-Feb-02 20:33N 49°09' W 123°02'0 0.0
2016-Feb-02 19:33N 49°09' W 123°02'0 0.0
2016-Feb-02 18:33N 49°09' W 123°02'0 0.0
2016-Feb-02 17:33N 49°09' W 123°02'5 4.9
2016-Feb-02 16:33N 49°07' W 123°09'7 7.4
2016-Feb-02 15:33N 49°04' W 123°20'1010.2
2016-Feb-02 14:33N 48°54' W 123°18'8 8.2
2016-Feb-02 13:33N 48°46' W 123°22'5 3.6
2016-Feb-02 12:08N 48°41' W 123°24'0 0.0
2016-Feb-02 11:24N 48°41' W 123°24'6 7.0
2016-Feb-02 10:33N 48°47' W 123°21'9 8.6
2016-Feb-02 09:33N 48°55' W 123°18'9 9.5
2016-Feb-02 08:33N 49°04' W 123°21'9 8.6
2016-Feb-02 07:33N 49°07' W 123°08'5 4.5
2016-Feb-02 06:33N 49°09' W 123°02'0 0.0
2016-Feb-02 05:33N 49°09' W 123°02'0 0.0
2016-Feb-02 04:33N 49°09' W 123°02'0 0.0
2016-Feb-02 03:33N 49°09' W 123°02'0 0.0
2016-Feb-02 02:33N 49°09' W 123°02'0 0.0
2016-Feb-02 01:33N 49°09' W 123°02'0 0.0
2016-Feb-02 00:33N 49°09' W 123°02'0 0.0
2016-Feb-01 23:33N 49°09' W 123°02'0 0.0
2016-Feb-01 22:33N 49°09' W 123°02'0 0.0
2016-Feb-01 21:33N 49°09' W 123°02'0 0.0
2016-Feb-01 20:33N 49°09' W 123°02'0 0.0
2016-Feb-01 19:33N 49°09' W 123°02'0 0.0
2016-Feb-01 18:33N 49°09' W 123°02'0 0.0
2016-Feb-01 17:33N 49°09' W 123°02'0 0.0
2016-Feb-01 16:33N 49°09' W 123°02'0 0.0
2016-Feb-01 15:33N 49°09' W 123°02'0 0.0
2016-Feb-01 14:33N 49°09' W 123°02'0 0.0
2016-Feb-01 13:33N 49°09' W 123°02'0 0.0
2016-Feb-01 12:33N 49°09' W 123°02'0 0.0
2016-Feb-01 11:33N 49°09' W 123°02'0 0.0
2016-Feb-01 10:33N 49°09' W 123°02'0 0.0
2016-Feb-01 09:33N 49°09' W 123°02'0 0.0
2016-Feb-01 08:33N 49°09' W 123°02'0 0.0
2016-Feb-01 07:33N 49°09' W 123°02'0 0.0
2016-Feb-01 06:33N 49°09' W 123°02'0 0.0
2016-Feb-01 05:33N 49°09' W 123°02'0 0.0
2016-Feb-01 04:33N 49°09' W 123°02'0 0.0
2016-Feb-01 03:33N 49°09' W 123°02'0 0.0
2016-Feb-01 02:33N 49°09' W 123°02'0 0.0
2016-Feb-01 01:33N 49°09' W 123°02'0 0.0
2016-Feb-01 00:33N 49°09' W 123°02'0 0.0
2016-Jan-31 23:33N 49°09' W 123°02'0 0.0
2016-Jan-31 22:33N 49°09' W 123°02'0 0.0
2016-Jan-31 21:33N 49°09' W 123°02'0 0.0
2016-Jan-31 20:33N 49°09' W 123°02'0 0.0
2016-Jan-31 19:33N 49°09' W 123°02'0 0.0
2016-Jan-31 18:33N 49°09' W 123°02'0 0.0
2016-Jan-31 17:33N 49°09' W 123°02'0 0.0
2016-Jan-31 16:33N 49°09' W 123°02'0 0.0
2016-Jan-31 15:33N 49°09' W 123°02'0 0.0
2016-Jan-31 14:33N 49°09' W 123°02'0 0.0
2016-Jan-31 13:33N 49°09' W 123°02'0 0.0
2016-Jan-31 12:33N 49°09' W 123°02'0 0.0
2016-Jan-31 11:33N 49°09' W 123°02'0 0.0
2016-Jan-31 10:33N 49°09' W 123°02'0 0.0
2016-Jan-31 09:33N 49°09' W 123°02'0 0.0
2016-Jan-31 08:33N 49°09' W 123°02'0 0.0
2016-Jan-31 07:33N 49°09' W 123°02'0 0.0
2016-Jan-31 06:33N 49°09' W 123°02'0 0.0
2016-Jan-31 05:33N 49°09' W 123°02'0 0.0
2016-Jan-31 04:33N 49°09' W 123°02'0 0.0
2016-Jan-31 03:33N 49°09' W 123°02'0 0.0
2016-Jan-31 02:33N 49°09' W 123°02'0 0.0
2016-Jan-31 01:33N 49°09' W 123°02'0 0.0
2016-Jan-31 00:33N 49°09' W 123°02'0 0.0
2016-Jan-30 23:33N 49°09' W 123°02'0 0.0
2016-Jan-30 22:33N 49°09' W 123°02'0 0.0
2016-Jan-30 21:33N 49°09' W 123°02'0 0.0
2016-Jan-30 20:33N 49°09' W 123°02'0 0.0
2016-Jan-30 19:33N 49°09' W 123°02'0 0.0
2016-Jan-30 18:33N 49°09' W 123°02'0 0.1
2016-Jan-30 17:33N 49°09' W 123°02'0 0.2
2016-Jan-30 16:33N 49°09' W 123°02'7 7.0
2016-Jan-30 15:33N 49°08' W 123°13'7 7.4
2016-Jan-30 14:33N 49°01' W 123°18'10 9.7
2016-Jan-30 13:33N 48°52' W 123°21'10 9.5
2016-Jan-30 12:33N 48°42' W 123°24'1 1.0
2016-Jan-30 11:33N 48°41' W 123°24'2 2.1
2016-Jan-30 10:33N 48°42' W 123°21'9 9.4
2016-Jan-30 09:33N 48°52' W 123°20'9 9.1
2016-Jan-30 08:33N 49°01' W 123°19'8 8.2
2016-Jan-30 07:33N 49°07' W 123°11'6 6.3
2016-Jan-30 06:33N 49°09' W 123°02'0 0.0
2016-Jan-30 05:33N 49°09' W 123°02'0 0.0
2016-Jan-30 04:33N 49°09' W 123°02'0 0.0
2016-Jan-30 03:33N 49°09' W 123°02'0 0.0
2016-Jan-30 02:33N 49°09' W 123°02'0 0.0
2016-Jan-30 01:33N 49°09' W 123°02'0 0.0
2016-Jan-30 00:33N 49°09' W 123°02'0 0.0
2016-Jan-29 23:33N 49°09' W 123°02'0 0.0
2016-Jan-29 22:33N 49°09' W 123°02'0 0.0
2016-Jan-29 21:33N 49°09' W 123°02'  
Track history (hours):
 
Tides and Currents Weather Stations Pressure Air Temp Water Temp Dewpoint Dewpoint Depression Visibility Wind Speed Wind Dir Waves Ship Positions

Arctic Taglu

Last reported at 2016-Feb-08 20:33 UTC. Time now 2016-Feb-08 21:19 UTC.
Position N 49°09' W 123°02'.

Length 33 m; draft 6 m.

Type: Tug. MMSI: 316003483.

Date/timePositionNaut miles runAvg speedWind from/ knotsBaromVisibWave heightAir tempDewpointWater temp
2016-Feb-08 20:33N 49°09' W 123°02'0 0.0
2016-Feb-08 19:33N 49°09' W 123°02'0 0.0
2016-Feb-08 18:33N 49°09' W 123°02'0 0.0
2016-Feb-08 17:33N 49°09' W 123°02'0 0.0
2016-Feb-08 16:33N 49°09' W 123°02'0 0.0
2016-Feb-08 15:33N 49°09' W 123°02'0 0.0
2016-Feb-08 14:33N 49°09' W 123°02'0 0.0
2016-Feb-08 13:33N 49°09' W 123°02'0 0.0
2016-Feb-08 12:33N 49°09' W 123°02'0 0.0
2016-Feb-08 11:33N 49°09' W 123°02'0 0.0
2016-Feb-08 10:33N 49°09' W 123°02'0 0.0
2016-Feb-08 09:33N 49°09' W 123°02'0 0.0
2016-Feb-08 08:33N 49°09' W 123°02'0 0.0
2016-Feb-08 07:33N 49°09' W 123°02'0 0.0
2016-Feb-08 06:33N 49°09' W 123°02'0 0.0
2016-Feb-08 05:33N 49°09' W 123°02'0 0.0
2016-Feb-08 04:33N 49°09' W 123°02'0 0.0
2016-Feb-08 03:33N 49°09' W 123°02'0 0.0
2016-Feb-08 02:33N 49°09' W 123°02'0 0.0
2016-Feb-08 01:33N 49°09' W 123°02'0 0.0
2016-Feb-08 00:33N 49°09' W 123°02'0 0.0
2016-Feb-07 23:33N 49°09' W 123°02'0 0.0
2016-Feb-07 22:33N 49°09' W 123°02'0 0.0
2016-Feb-07 21:33N 49°09' W 123°02'0 0.0
2016-Feb-07 20:33N 49°09' W 123°02'0 0.0
2016-Feb-07 19:33N 49°09' W 123°02'0 0.0
2016-Feb-07 18:33N 49°09' W 123°02'0 0.0
2016-Feb-07 17:33N 49°09' W 123°02'0 0.0
2016-Feb-07 16:33N 49°09' W 123°02'0 0.0
2016-Feb-07 15:33N 49°09' W 123°02'0 0.0
2016-Feb-07 14:33N 49°09' W 123°02'0 0.0
2016-Feb-07 13:33N 49°09' W 123°02'0 0.0
2016-Feb-07 12:33N 49°09' W 123°02'0 0.0
2016-Feb-07 11:33N 49°09' W 123°02'0 0.0
2016-Feb-07 10:33N 49°09' W 123°02'0 0.0
2016-Feb-07 09:33N 49°09' W 123°02'0 0.0
2016-Feb-07 08:33N 49°09' W 123°02'0 0.0
2016-Feb-07 07:33N 49°09' W 123°02'0 0.0
2016-Feb-07 06:33N 49°09' W 123°02'0 0.0
2016-Feb-07 05:33N 49°09' W 123°02'0 0.0
2016-Feb-07 04:33N 49°09' W 123°02'0 0.0
2016-Feb-07 03:33N 49°09' W 123°02'0 0.0
2016-Feb-07 02:33N 49°09' W 123°02'0 0.0
2016-Feb-07 01:33N 49°09' W 123°02'0 0.0
2016-Feb-07 00:33N 49°09' W 123°02'0 0.0
2016-Feb-06 23:33N 49°09' W 123°02'0 0.0
2016-Feb-06 22:33N 49°09' W 123°02'0 0.0
2016-Feb-06 21:33N 49°09' W 123°02'0 0.0
2016-Feb-06 20:33N 49°09' W 123°02'0 0.0
2016-Feb-06 19:33N 49°09' W 123°02'0 0.0
2016-Feb-06 18:33N 49°09' W 123°02'0 0.0
2016-Feb-06 17:33N 49°09' W 123°02'6 5.6
2016-Feb-06 16:33N 49°07' W 123°10'7 7.2
2016-Feb-06 15:33N 49°03' W 123°19'1010.2
2016-Feb-06 14:33N 48°53' W 123°18'7 7.3
2016-Feb-06 13:33N 48°46' W 123°22'5 4.8
2016-Feb-06 12:33N 48°41' W 123°24'0 0.0
2016-Feb-06 11:33N 48°41' W 123°24'6 5.7
2016-Feb-06 10:33N 48°46' W 123°21'7 6.9
2016-Feb-06 09:33N 48°53' W 123°18'10 9.6
2016-Feb-06 08:33N 49°03' W 123°20'8 7.6
2016-Feb-06 07:33N 49°07' W 123°10'6 5.6
2016-Feb-06 06:33N 49°09' W 123°02'0 0.0
2016-Feb-06 05:33N 49°09' W 123°02'0 0.0
2016-Feb-06 04:33N 49°09' W 123°02'0 0.0
2016-Feb-06 03:33N 49°09' W 123°02'0 0.0
2016-Feb-06 02:33N 49°09' W 123°02'0 0.0
2016-Feb-06 01:33N 49°09' W 123°02'0 0.0
2016-Feb-06 00:33N 49°09' W 123°02'0 0.0
2016-Feb-05 23:33N 49°09' W 123°02'0 0.0
2016-Feb-05 22:33N 49°09' W 123°02'0 0.0
2016-Feb-05 21:33N 49°09' W 123°02'0 0.0
2016-Feb-05 20:33N 49°09' W 123°02'0 0.0
2016-Feb-05 19:33N 49°09' W 123°02'0 0.0
2016-Feb-05 18:33N 49°09' W 123°02'0 0.0
2016-Feb-05 17:33N 49°09' W 123°02'7 6.5
2016-Feb-05 16:33N 49°07' W 123°12'8 7.6
2016-Feb-05 15:33N 49°01' W 123°19'9 9.4
2016-Feb-05 14:33N 48°52' W 123°18'7 7.2
2016-Feb-05 13:33N 48°45' W 123°22'4 4.3
2016-Feb-05 12:33N 48°41' W 123°24'0 0.0
2016-Feb-05 11:33N 48°41' W 123°24'7 6.7
2016-Feb-05 10:33N 48°48' W 123°21'7 7.3
2016-Feb-05 09:33N 48°55' W 123°18'9 8.8
2016-Feb-05 08:33N 49°03' W 123°20'8 7.7
2016-Feb-05 07:33N 49°07' W 123°09'5 5.3
2016-Feb-05 06:33N 49°09' W 123°02'2 2.4
2016-Feb-05 05:33N 49°07' W 123°05'6 6.4
2016-Feb-05 04:33N 49°08' W 123°15'7 6.7
2016-Feb-05 03:33N 49°02' W 123°19'9 9.2
2016-Feb-05 02:33N 48°52' W 123°18'5 5.3
2016-Feb-05 01:33N 48°47' W 123°20'7 6.5
2016-Feb-05 00:33N 48°41' W 123°24'0 0.1
2016-Feb-04 23:32N 48°41' W 123°24'9 8.8
2016-Feb-04 22:33N 48°50' W 123°21'8 8.0
2016-Feb-04 21:33N 48°58' W 123°19'9 8.9
2016-Feb-04 20:33N 49°07' W 123°17'10 9.5
2016-Feb-04 19:33N 49°08' W 123°03'1 0.6
2016-Feb-04 18:33N 49°09' W 123°02'2 2.1
2016-Feb-04 17:33N 49°07' W 123°05'8 7.8
2016-Feb-04 16:33N 49°07' W 123°17'9 8.7
2016-Feb-04 15:33N 48°58' W 123°18'7 7.1
2016-Feb-04 14:33N 48°51' W 123°21'9 9.0
2016-Feb-04 13:33N 48°43' W 123°26'2 2.1
2016-Feb-04 12:33N 48°41' W 123°24'1 1.4
2016-Feb-04 11:33N 48°42' W 123°22'9 9.4
2016-Feb-04 10:33N 48°51' W 123°21'7 7.2
2016-Feb-04 09:33N 48°58' W 123°21'7 7.2
2016-Feb-04 08:33N 49°05' W 123°20'9 8.8
2016-Feb-04 07:33N 49°07' W 123°07'4 3.8
2016-Feb-04 06:33N 49°09' W 123°02'0 0.0
2016-Feb-04 05:33N 49°09' W 123°02'0 0.0
2016-Feb-04 04:33N 49°09' W 123°02'0 0.0
2016-Feb-04 03:33N 49°09' W 123°02'0 0.0
2016-Feb-04 02:33N 49°09' W 123°02'0 0.0
2016-Feb-04 01:33N 49°09' W 123°02'0 0.0
2016-Feb-04 00:33N 49°09' W 123°02'0 0.0
2016-Feb-03 23:33N 49°09' W 123°02'0 0.0
2016-Feb-03 22:33N 49°09' W 123°02'0 0.0
2016-Feb-03 21:33N 49°09' W 123°02'0 0.0
2016-Feb-03 20:33N 49°09' W 123°02'0 0.0
2016-Feb-03 19:33N 49°09' W 123°02'0 0.0
2016-Feb-03 18:33N 49°09' W 123°02'2 1.9
2016-Feb-03 17:33N 49°07' W 123°04'8 7.7
2016-Feb-03 16:33N 49°07' W 123°16'7 7.0
2016-Feb-03 15:33N 49°00' W 123°15'9 8.8
2016-Feb-03 14:33N 48°52' W 123°19'8 7.9
2016-Feb-03 13:33N 48°44' W 123°23'3 3.1
2016-Feb-03 12:33N 48°41' W 123°24'0 0.0
2016-Feb-03 11:33N 48°41' W 123°24'8 8.0
2016-Feb-03 10:33N 48°49' W 123°21'8 7.6
2016-Feb-03 09:33N 48°56' W 123°19'9 8.8
2016-Feb-03 08:33N 49°05' W 123°21'9 9.3
2016-Feb-03 07:33N 49°07' W 123°07'4 3.9
2016-Feb-03 06:33N 49°09' W 123°02'0 0.0
2016-Feb-03 05:33N 49°09' W 123°02'0 0.0
2016-Feb-03 04:33N 49°09' W 123°02'0 0.0
2016-Feb-03 03:33N 49°09' W 123°02'0 0.0
2016-Feb-03 02:33N 49°09' W 123°02'0 0.0
2016-Feb-03 01:33N 49°09' W 123°02'0 0.0
2016-Feb-03 00:33N 49°09' W 123°02'0 0.0
2016-Feb-02 23:33N 49°09' W 123°02'0 0.0
2016-Feb-02 22:33N 49°09' W 123°02'0 0.0
2016-Feb-02 21:33N 49°09' W 123°02'0 0.0
2016-Feb-02 20:33N 49°09' W 123°02'0 0.0
2016-Feb-02 19:33N 49°09' W 123°02'0 0.0
2016-Feb-02 18:33N 49°09' W 123°02'0 0.0
2016-Feb-02 17:33N 49°09' W 123°02'5 4.9
2016-Feb-02 16:33N 49°07' W 123°09'7 7.4
2016-Feb-02 15:33N 49°04' W 123°20'1010.2
2016-Feb-02 14:33N 48°54' W 123°18'8 8.2
2016-Feb-02 13:33N 48°46' W 123°22'5 3.6
2016-Feb-02 12:08N 48°41' W 123°24'0 0.0
2016-Feb-02 11:24N 48°41' W 123°24'6 7.0
2016-Feb-02 10:33N 48°47' W 123°21'9 8.6
2016-Feb-02 09:33N 48°55' W 123°18'9 9.5
2016-Feb-02 08:33N 49°04' W 123°21'9 8.6
2016-Feb-02 07:33N 49°07' W 123°08'5 4.5
2016-Feb-02 06:33N 49°09' W 123°02'0 0.0
2016-Feb-02 05:33N 49°09' W 123°02'0 0.0
2016-Feb-02 04:33N 49°09' W 123°02'0 0.0
2016-Feb-02 03:33N 49°09' W 123°02'0 0.0
2016-Feb-02 02:33N 49°09' W 123°02'0 0.0
2016-Feb-02 01:33N 49°09' W 123°02'0 0.0
2016-Feb-02 00:33N 49°09' W 123°02'0 0.0
2016-Feb-01 23:33N 49°09' W 123°02'0 0.0
2016-Feb-01 22:33N 49°09' W 123°02'0 0.0
2016-Feb-01 21:33N 49°09' W 123°02'0 0.0
2016-Feb-01 20:33N 49°09' W 123°02'0 0.0
2016-Feb-01 19:33N 49°09' W 123°02'0 0.0
2016-Feb-01 18:33N 49°09' W 123°02'0 0.0
2016-Feb-01 17:33N 49°09' W 123°02'0 0.0
2016-Feb-01 16:33N 49°09' W 123°02'0 0.0
2016-Feb-01 15:33N 49°09' W 123°02'0 0.0
2016-Feb-01 14:33N 49°09' W 123°02'0 0.0
2016-Feb-01 13:33N 49°09' W 123°02'0 0.0
2016-Feb-01 12:33N 49°09' W 123°02'0 0.0
2016-Feb-01 11:33N 49°09' W 123°02'0 0.0
2016-Feb-01 10:33N 49°09' W 123°02'0 0.0
2016-Feb-01 09:33N 49°09' W 123°02'0 0.0
2016-Feb-01 08:33N 49°09' W 123°02'0 0.0
2016-Feb-01 07:33N 49°09' W 123°02'0 0.0
2016-Feb-01 06:33N 49°09' W 123°02'0 0.0
2016-Feb-01 05:33N 49°09' W 123°02'0 0.0
2016-Feb-01 04:33N 49°09' W 123°02'0 0.0
2016-Feb-01 03:33N 49°09' W 123°02'0 0.0
2016-Feb-01 02:33N 49°09' W 123°02'0 0.0
2016-Feb-01 01:33N 49°09' W 123°02'0 0.0
2016-Feb-01 00:33N 49°09' W 123°02'0 0.0
2016-Jan-31 23:33N 49°09' W 123°02'0 0.0
2016-Jan-31 22:33N 49°09' W 123°02'0 0.0
2016-Jan-31 21:33N 49°09' W 123°02'0 0.0
2016-Jan-31 20:33N 49°09' W 123°02'0 0.0
2016-Jan-31 19:33N 49°09' W 123°02'0 0.0
2016-Jan-31 18:33N 49°09' W 123°02'0 0.0
2016-Jan-31 17:33N 49°09' W 123°02'0 0.0
2016-Jan-31 16:33N 49°09' W 123°02'0 0.0
2016-Jan-31 15:33N 49°09' W 123°02'0 0.0
2016-Jan-31 14:33N 49°09' W 123°02'0 0.0
2016-Jan-31 13:33N 49°09' W 123°02'0 0.0
2016-Jan-31 12:33N 49°09' W 123°02'0 0.0
2016-Jan-31 11:33N 49°09' W 123°02'0 0.0
2016-Jan-31 10:33N 49°09' W 123°02'0 0.0
2016-Jan-31 09:33N 49°09' W 123°02'0 0.0
2016-Jan-31 08:33N 49°09' W 123°02'0 0.0
2016-Jan-31 07:33N 49°09' W 123°02'0 0.0
2016-Jan-31 06:33N 49°09' W 123°02'0 0.0
2016-Jan-31 05:33N 49°09' W 123°02'0 0.0
2016-Jan-31 04:33N 49°09' W 123°02'0 0.0
2016-Jan-31 03:33N 49°09' W 123°02'0 0.0
2016-Jan-31 02:33N 49°09' W 123°02'0 0.0
2016-Jan-31 01:33N 49°09' W 123°02'0 0.0
2016-Jan-31 00:33N 49°09' W 123°02'0 0.0
2016-Jan-30 23:33N 49°09' W 123°02'0 0.0
2016-Jan-30 22:33N 49°09' W 123°02'0 0.0
2016-Jan-30 21:33N 49°09' W 123°02'0 0.0
2016-Jan-30 20:33N 49°09' W 123°02'0 0.0
2016-Jan-30 19:33N 49°09' W 123°02'0 0.0
2016-Jan-30 18:33N 49°09' W 123°02'0 0.1
2016-Jan-30 17:33N 49°09' W 123°02'0 0.2
2016-Jan-30 16:33N 49°09' W 123°02'7 7.0
2016-Jan-30 15:33N 49°08' W 123°13'7 7.4
2016-Jan-30 14:33N 49°01' W 123°18'10 9.7
2016-Jan-30 13:33N 48°52' W 123°21'10 9.5
2016-Jan-30 12:33N 48°42' W 123°24'1 1.0
2016-Jan-30 11:33N 48°41' W 123°24'2 2.1
2016-Jan-30 10:33N 48°42' W 123°21'9 9.4
2016-Jan-30 09:33N 48°52' W 123°20'9 9.1
2016-Jan-30 08:33N 49°01' W 123°19'8 8.2
2016-Jan-30 07:33N 49°07' W 123°11'6 6.3
2016-Jan-30 06:33N 49°09' W 123°02'0 0.0
2016-Jan-30 05:33N 49°09' W 123°02'0 0.0
2016-Jan-30 04:33N 49°09' W 123°02'0 0.0
2016-Jan-30 03:33N 49°09' W 123°02'0 0.0
2016-Jan-30 02:33N 49°09' W 123°02'0 0.0
2016-Jan-30 01:33N 49°09' W 123°02'0 0.0
2016-Jan-30 00:33N 49°09' W 123°02'0 0.0
2016-Jan-29 23:33N 49°09' W 123°02'0 0.0
2016-Jan-29 22:33N 49°09' W 123°02'0 0.0
2016-Jan-29 21:33N 49°09' W 123°02'  

Dump ship's entire track history